sensor_id;sensor_type;location;lat;lon;timestamp;pressure;altitude;pressure_sealevel;temperature;humidity
21633;BME280;48765;51.568;8.840;2022-07-18T00:00:14;99400.19;;;12.84;100.00
21633;BME280;48765;51.568;8.840;2022-07-18T00:02:41;99396.66;;;12.71;100.00
21633;BME280;48765;51.568;8.840;2022-07-18T00:05:08;99401.97;;;12.79;100.00
21633;BME280;48765;51.568;8.840;2022-07-18T00:07:35;99394.88;;;12.87;100.00
21633;BME280;48765;51.568;8.840;2022-07-18T00:10:04;99401.94;;;12.93;100.00
21633;BME280;48765;51.568;8.840;2022-07-18T00:12:31;99401.97;;;12.96;100.00
21633;BME280;48765;51.568;8.840;2022-07-18T00:14:58;99398.44;;;12.75;100.00
21633;BME280;48765;51.568;8.840;2022-07-18T00:17:25;99404.66;;;12.64;100.00
21633;BME280;48765;51.568;8.840;2022-07-18T00:19:52;99417.06;;;12.59;100.00
21633;BME280;48765;51.568;8.840;2022-07-18T00:22:19;99411.72;;;12.74;100.00
21633;BME280;48765;51.568;8.840;2022-07-18T00:24:46;99421.47;;;12.41;100.00
21633;BME280;48765;51.568;8.840;2022-07-18T00:27:14;99415.28;;;12.54;100.00
21633;BME280;48765;51.568;8.840;2022-07-18T00:29:41;99425.91;;;12.45;100.00
21633;BME280;48765;51.568;8.840;2022-07-18T00:32:08;99424.16;;;12.38;100.00
21633;BME280;48765;51.568;8.840;2022-07-18T00:34:35;99417.03;;;12.31;100.00
21633;BME280;48765;51.568;8.840;2022-07-18T00:37:02;99427.69;;;12.40;100.00
21633;BME280;48765;51.568;8.840;2022-07-18T00:39:29;99417.91;;;12.36;100.00
21633;BME280;48765;51.568;8.840;2022-07-18T00:41:56;99417.94;;;12.42;100.00
21633;BME280;48765;51.568;8.840;2022-07-18T00:44:25;99411.75;;;12.43;100.00
21633;BME280;48765;51.568;8.840;2022-07-18T00:46:53;99404.66;;;12.42;100.00
21633;BME280;48765;51.568;8.840;2022-07-18T00:49:21;99402.00;;;12.48;100.00
21633;BME280;48765;51.568;8.840;2022-07-18T00:51:48;99400.19;;;12.35;100.00
21633;BME280;48765;51.568;8.840;2022-07-18T00:54:15;99400.22;;;12.49;100.00
21633;BME280;48765;51.568;8.840;2022-07-18T00:56:43;99391.34;;;12.48;100.00
21633;BME280;48765;51.568;8.840;2022-07-18T00:59:11;99394.91;;;12.57;100.00
21633;BME280;48765;51.568;8.840;2022-07-18T01:01:39;99392.22;;;12.53;100.00
21633;BME280;48765;51.568;8.840;2022-07-18T01:04:09;99396.66;;;12.44;100.00
21633;BME280;48765;51.568;8.840;2022-07-18T01:06:37;99394.00;;;12.36;100.00
21633;BME280;48765;51.568;8.840;2022-07-18T01:09:04;99397.53;;;12.29;100.00
21633;BME280;48765;51.568;8.840;2022-07-18T01:11:31;99397.50;;;12.17;100.00
21633;BME280;48765;51.568;8.840;2022-07-18T01:13:58;99391.31;;;12.15;100.00
21633;BME280;48765;51.568;8.840;2022-07-18T01:16:25;99390.41;;;12.13;100.00
21633;BME280;48765;51.568;8.840;2022-07-18T01:18:54;99383.31;;;12.18;100.00
21633;BME280;48765;51.568;8.840;2022-07-18T01:21:22;99386.88;;;12.21;100.00
21633;BME280;48765;51.568;8.840;2022-07-18T01:23:49;99385.97;;;12.04;100.00
21633;BME280;48765;51.568;8.840;2022-07-18T01:26:16;99378.00;;;12.02;100.00
21633;BME280;48765;51.568;8.840;2022-07-18T01:28:43;99385.03;;;11.90;100.00
21633;BME280;48765;51.568;8.840;2022-07-18T01:31:10;99377.88;;;11.75;100.00
21633;BME280;48765;51.568;8.840;2022-07-18T01:33:37;99365.56;;;11.94;100.00
21633;BME280;48765;51.568;8.840;2022-07-18T01:36:05;99362.03;;;11.90;100.00
21633;BME280;48765;51.568;8.840;2022-07-18T01:38:34;99361.13;;;11.82;100.00
21633;BME280;48765;51.568;8.840;2022-07-18T01:41:01;99349.66;;;12.08;100.00
21633;BME280;48765;51.568;8.840;2022-07-18T01:43:28;99354.06;;;11.93;100.00
21633;BME280;48765;51.568;8.840;2022-07-18T01:45:55;99348.75;;;11.93;100.00
21633;BME280;48765;51.568;8.840;2022-07-18T01:48:22;99341.66;;;11.89;100.00
21633;BME280;48765;51.568;8.840;2022-07-18T01:50:49;99344.25;;;11.74;100.00
21633;BME280;48765;51.568;8.840;2022-07-18T01:53:16;99350.44;;;11.74;100.00
21633;BME280;48765;51.568;8.840;2022-07-18T01:55:45;99356.59;;;11.61;100.00
21633;BME280;48765;51.568;8.840;2022-07-18T01:58:12;99360.13;;;11.62;100.00
21633;BME280;48765;51.568;8.840;2022-07-18T02:00:39;99367.19;;;11.57;100.00
21633;BME280;48765;51.568;8.840;2022-07-18T02:03:06;99374.34;;;11.76;100.00
21633;BME280;48765;51.568;8.840;2022-07-18T02:05:33;99370.00;;;11.90;100.00
21633;BME280;48765;51.568;8.840;2022-07-18T02:07:59;99372.56;;;11.69;100.00
21633;BME280;48765;51.568;8.840;2022-07-18T02:10:26;99369.03;;;11.67;100.00
21633;BME280;48765;51.568;8.840;2022-07-18T02:12:55;99375.22;;;11.63;100.00
21633;BME280;48765;51.568;8.840;2022-07-18T02:15:21;99368.09;;;11.66;100.00
21633;BME280;48765;51.568;8.840;2022-07-18T02:17:50;99361.78;;;11.32;100.00
21633;BME280;48765;51.568;8.840;2022-07-18T02:20:17;99355.66;;;11.44;100.00
21633;BME280;48765;51.568;8.840;2022-07-18T02:22:43;99365.38;;;11.46;100.00
21633;BME280;48765;51.568;8.840;2022-07-18T02:25:11;99372.59;;;11.72;100.00
21633;BME280;48765;51.568;8.840;2022-07-18T02:27:38;99361.94;;;11.69;100.00
21633;BME280;48765;51.568;8.840;2022-07-18T02:30:07;99359.28;;;11.70;100.00
21633;BME280;48765;51.568;8.840;2022-07-18T02:32:34;99353.06;;;11.64;100.00
21633;BME280;48765;51.568;8.840;2022-07-18T02:35:02;99346.84;;;11.59;100.00
21633;BME280;48765;51.568;8.840;2022-07-18T02:37:29;99353.06;;;11.64;100.00
21633;BME280;48765;51.568;8.840;2022-07-18T02:39:56;99354.81;;;11.59;100.00
21633;BME280;48765;51.568;8.840;2022-07-18T02:42:23;99341.56;;;11.71;100.00
21633;BME280;48765;51.568;8.840;2022-07-18T02:44:50;99351.28;;;11.54;100.00
21633;BME280;48765;51.568;8.840;2022-07-18T02:47:18;99341.53;;;11.54;100.00
21633;BME280;48765;51.568;8.840;2022-07-18T02:49:45;99347.72;;;11.51;100.00
21633;BME280;48765;51.568;8.840;2022-07-18T02:52:12;99337.06;;;11.45;100.00
21633;BME280;48765;51.568;8.840;2022-07-18T02:54:39;99336.19;;;11.39;100.00
21633;BME280;48765;51.568;8.840;2022-07-18T02:57:06;99336.19;;;11.45;100.00
21633;BME280;48765;51.568;8.840;2022-07-18T02:59:33;99340.59;;;11.47;100.00
21633;BME280;48765;51.568;8.840;2022-07-18T03:02:00;99337.00;;;11.27;100.00
21633;BME280;48765;51.568;8.840;2022-07-18T03:04:28;99335.09;;;11.05;100.00
21633;BME280;48765;51.568;8.840;2022-07-18T03:06:55;99339.69;;;11.36;100.00
21633;BME280;48765;51.568;8.840;2022-07-18T03:09:22;99337.00;;;11.32;100.00
21633;BME280;48765;51.568;8.840;2022-07-18T03:11:52;99336.06;;;11.19;100.00
21633;BME280;48765;51.568;8.840;2022-07-18T03:14:19;99332.56;;;11.21;100.00
21633;BME280;48765;51.568;8.840;2022-07-18T03:16:46;99337.00;;;11.32;100.00
21633;BME280;48765;51.568;8.840;2022-07-18T03:19:12;99337.00;;;11.32;100.00
21633;BME280;48765;51.568;8.840;2022-07-18T03:21:41;99345.84;;;11.26;100.00
21633;BME280;48765;51.568;8.840;2022-07-18T03:24:08;99333.38;;;11.10;100.00
21633;BME280;48765;51.568;8.840;2022-07-18T03:26:36;99337.00;;;11.27;100.00
21633;BME280;48765;51.568;8.840;2022-07-18T03:29:03;99344.03;;;11.19;100.00
21633;BME280;48765;51.568;8.840;2022-07-18T03:31:30;99335.13;;;11.08;100.00
21633;BME280;48765;51.568;8.840;2022-07-18T03:33:57;99343.13;;;11.14;100.00
21633;BME280;48765;51.568;8.840;2022-07-18T03:36:23;99342.28;;;11.24;100.00
21633;BME280;48765;51.568;8.840;2022-07-18T03:38:52;99332.50;;;11.11;100.00
21633;BME280;48765;51.568;8.840;2022-07-18T03:41:19;99329.84;;;11.14;100.00
21633;BME280;48765;51.568;8.840;2022-07-18T03:43:45;99329.94;;;11.32;100.00
21633;BME280;48765;51.568;8.840;2022-07-18T03:46:12;99326.34;;;11.21;100.00
21633;BME280;48765;51.568;8.840;2022-07-18T03:48:39;99332.53;;;11.23;100.00
21633;BME280;48765;51.568;8.840;2022-07-18T03:51:06;99329.84;;;11.11;100.00
21633;BME280;48765;51.568;8.840;2022-07-18T03:53:33;99325.53;;;11.37;100.00
21633;BME280;48765;51.568;8.840;2022-07-18T03:56:01;99335.28;;;11.40;100.00
21633;BME280;48765;51.568;8.840;2022-07-18T03:58:28;99321.13;;;11.45;100.00
21633;BME280;48765;51.568;8.840;2022-07-18T04:00:55;99317.63;;;11.56;100.00
21633;BME280;48765;51.568;8.840;2022-07-18T04:03:22;99322.00;;;11.35;100.00
21633;BME280;48765;51.568;8.840;2022-07-18T04:05:49;99317.63;;;11.62;100.00
21633;BME280;48765;51.568;8.840;2022-07-18T04:08:16;99320.31;;;11.66;100.00
21633;BME280;48765;51.568;8.840;2022-07-18T04:10:43;99327.41;;;11.75;100.00
21633;BME280;48765;51.568;8.840;2022-07-18T04:13:11;99321.22;;;11.73;100.00
21633;BME280;48765;51.568;8.840;2022-07-18T04:15:38;99322.19;;;11.90;100.00
21633;BME280;48765;51.568;8.840;2022-07-18T04:18:05;99331.91;;;11.91;100.00
21633;BME280;48765;51.568;8.840;2022-07-18T04:20:32;99321.28;;;11.94;100.00
21633;BME280;48765;51.568;8.840;2022-07-18T04:23:01;99316.88;;;11.90;100.00
21633;BME280;48765;51.568;8.840;2022-07-18T04:25:28;99320.34;;;11.82;100.00
21633;BME280;48765;51.568;8.840;2022-07-18T04:27:56;99317.66;;;11.75;100.00
21633;BME280;48765;51.568;8.840;2022-07-18T04:30:24;99320.41;;;11.98;100.00
21633;BME280;48765;51.568;8.840;2022-07-18T04:32:52;99319.50;;;11.99;100.00
21633;BME280;48765;51.568;8.840;2022-07-18T04:35:19;99318.66;;;12.11;100.00
21633;BME280;48765;51.568;8.840;2022-07-18T04:37:46;99322.19;;;12.22;100.00
21633;BME280;48765;51.568;8.840;2022-07-18T04:40:13;99312.47;;;12.29;100.00
21633;BME280;48765;51.568;8.840;2022-07-18T04:42:41;99301.81;;;12.29;100.00
21633;BME280;48765;51.568;8.840;2022-07-18T04:45:08;99301.81;;;12.32;100.00
21633;BME280;48765;51.568;8.840;2022-07-18T04:47:36;99294.69;;;12.63;100.00
21633;BME280;48765;51.568;8.840;2022-07-18T04:50:04;99305.31;;;12.74;100.00
21633;BME280;48765;51.568;8.840;2022-07-18T04:52:35;99300.00;;;12.77;100.00
21633;BME280;48765;51.568;8.840;2022-07-18T04:55:02;99296.34;;;13.02;100.00
21633;BME280;48765;51.568;8.840;2022-07-18T04:57:28;99306.06;;;13.16;100.00
21633;BME280;48765;51.568;8.840;2022-07-18T04:59:55;99301.66;;;13.15;100.00
21633;BME280;48765;51.568;8.840;2022-07-18T05:02:22;99298.03;;;13.34;100.00
21633;BME280;48765;51.568;8.840;2022-07-18T05:04:51;99300.66;;;13.45;100.00
21633;BME280;48765;51.568;8.840;2022-07-18T05:07:18;99297.97;;;13.49;100.00
21633;BME280;48765;51.568;8.840;2022-07-18T05:09:44;99296.91;;;13.81;100.00
21633;BME280;48765;51.568;8.840;2022-07-18T05:12:11;99289.88;;;13.68;100.00
21633;BME280;48765;51.568;8.840;2022-07-18T05:14:38;99301.38;;;13.79;100.00
21633;BME280;48765;51.568;8.840;2022-07-18T05:17:05;99290.47;;;14.13;100.00
21633;BME280;48765;51.568;8.840;2022-07-18T05:19:32;99293.97;;;14.18;100.00
21633;BME280;48765;51.568;8.840;2022-07-18T05:22:00;99300.84;;;14.43;100.00
21633;BME280;48765;51.568;8.840;2022-07-18T05:24:27;99300.78;;;14.59;100.00
21633;BME280;48765;51.568;8.840;2022-07-18T05:26:54;99308.72;;;14.65;100.00
21633;BME280;48765;51.568;8.840;2022-07-18T05:29:21;99304.03;;;14.88;100.00
21633;BME280;48765;51.568;8.840;2022-07-18T05:31:48;99298.38;;;15.16;100.00
21633;BME280;48765;51.568;8.840;2022-07-18T05:34:15;99298.28;;;15.25;100.00
21633;BME280;48765;51.568;8.840;2022-07-18T05:36:41;99294.34;;;15.53;100.00
21633;BME280;48765;51.568;8.840;2022-07-18T05:39:10;99288.91;;;15.59;100.00
21633;BME280;48765;51.568;8.840;2022-07-18T05:41:37;99289.38;;;15.89;100.00
21633;BME280;48765;51.568;8.840;2022-07-18T05:44:04;99281.88;;;16.14;95.69
21633;BME280;48765;51.568;8.840;2022-07-18T05:46:31;99281.22;;;16.51;85.31
21633;BME280;48765;51.568;8.840;2022-07-18T05:48:57;99282.59;;;16.76;83.76
21633;BME280;48765;51.568;8.840;2022-07-18T05:51:24;99293.03;;;16.92;83.99
21633;BME280;48765;51.568;8.840;2022-07-18T05:53:51;99285.13;;;16.84;86.35
21633;BME280;48765;51.568;8.840;2022-07-18T05:56:19;99287.88;;;16.81;90.81
21633;BME280;48765;51.568;8.840;2022-07-18T05:58:46;99290.44;;;16.87;88.91
21633;BME280;48765;51.568;8.840;2022-07-18T06:01:13;99290.06;;;17.05;84.32
21633;BME280;48765;51.568;8.840;2022-07-18T06:03:45;99302.13;;;17.28;84.14
21633;BME280;48765;51.568;8.840;2022-07-18T06:06:12;99303.25;;;17.18;91.83
21633;BME280;48765;51.568;8.840;2022-07-18T06:08:39;99303.75;;;17.35;87.09
21633;BME280;48765;51.568;8.840;2022-07-18T06:11:06;99292.72;;;17.50;85.44
21633;BME280;48765;51.568;8.840;2022-07-18T06:13:35;99291.03;;;17.88;77.39
21633;BME280;48765;51.568;8.840;2022-07-18T06:16:03;99284.16;;;18.13;74.77
21633;BME280;48765;51.568;8.840;2022-07-18T06:18:30;99285.84;;;18.18;74.86
21633;BME280;48765;51.568;8.840;2022-07-18T06:20:57;99276.41;;;18.37;69.41
21633;BME280;48765;51.568;8.840;2022-07-18T06:23:24;99284.00;;;18.55;65.01
21633;BME280;48765;51.568;8.840;2022-07-18T06:25:51;99277.19;;;18.78;66.45
21633;BME280;48765;51.568;8.840;2022-07-18T06:28:18;99280.19;;;18.98;67.91
21633;BME280;48765;51.568;8.840;2022-07-18T06:30:46;99278.25;;;19.03;67.06
21633;BME280;48765;51.568;8.840;2022-07-18T06:33:13;99273.53;;;19.11;65.90
21633;BME280;48765;51.568;8.840;2022-07-18T06:35:40;99279.66;;;19.17;66.37
21633;BME280;48765;51.568;8.840;2022-07-18T06:38:07;99262.53;;;19.21;65.58
21633;BME280;48765;51.568;8.840;2022-07-18T06:40:34;99259.31;;;19.39;64.83
21633;BME280;48765;51.568;8.840;2022-07-18T06:43:00;99254.75;;;19.41;62.44
21633;BME280;48765;51.568;8.840;2022-07-18T06:45:27;99261.81;;;19.45;63.44
21633;BME280;48765;51.568;8.840;2022-07-18T06:47:56;99245.66;;;19.45;61.97
21633;BME280;48765;51.568;8.840;2022-07-18T06:50:23;99246.09;;;19.62;60.92
21633;BME280;48765;51.568;8.840;2022-07-18T06:52:49;99245.38;;;19.84;62.28
21633;BME280;48765;51.568;8.840;2022-07-18T06:55:16;99246.91;;;19.92;61.89
21633;BME280;48765;51.568;8.840;2022-07-18T06:57:45;99237.81;;;19.97;61.32
21633;BME280;48765;51.568;8.840;2022-07-18T07:00:12;99237.56;;;20.04;60.57
21633;BME280;48765;51.568;8.840;2022-07-18T07:02:40;99233.38;;;20.22;60.17
21633;BME280;48765;51.568;8.840;2022-07-18T07:05:09;99234.81;;;20.32;60.02
21633;BME280;48765;51.568;8.840;2022-07-18T07:07:36;99234.97;;;20.28;59.82
21633;BME280;48765;51.568;8.840;2022-07-18T07:10:03;99238.56;;;20.55;59.50
21633;BME280;48765;51.568;8.840;2022-07-18T07:12:30;99243.16;;;20.51;59.61
21633;BME280;48765;51.568;8.840;2022-07-18T07:15:04;99241.72;;;20.67;60.28
21633;BME280;48765;51.568;8.840;2022-07-18T07:17:31;99239.47;;;20.80;60.06
21633;BME280;48765;51.568;8.840;2022-07-18T07:19:59;99238.38;;;20.86;58.60
21633;BME280;48765;51.568;8.840;2022-07-18T07:22:27;99241.44;;;21.00;58.39
21633;BME280;48765;51.568;8.840;2022-07-18T07:24:54;99240.97;;;21.12;58.85
21633;BME280;48765;51.568;8.840;2022-07-18T07:27:21;99238.88;;;21.21;57.37
21633;BME280;48765;51.568;8.840;2022-07-18T07:29:47;99236.47;;;21.13;55.84
21633;BME280;48765;51.568;8.840;2022-07-18T07:32:14;99227.88;;;21.27;54.59
21633;BME280;48765;51.568;8.840;2022-07-18T07:34:41;99232.03;;;21.35;54.47
21633;BME280;48765;51.568;8.840;2022-07-18T07:37:08;99236.78;;;21.29;53.54
21633;BME280;48765;51.568;8.840;2022-07-18T07:39:36;99228.06;;;21.46;53.98
21633;BME280;48765;51.568;8.840;2022-07-18T07:42:03;99232.22;;;21.31;54.13
21633;BME280;48765;51.568;8.840;2022-07-18T07:44:30;99213.81;;;21.42;54.49
21633;BME280;48765;51.568;8.840;2022-07-18T07:46:57;99224.38;;;21.48;55.29
21633;BME280;48765;51.568;8.840;2022-07-18T07:49:24;99226.09;;;21.73;53.88
21633;BME280;48765;51.568;8.840;2022-07-18T07:51:51;99220.94;;;21.66;53.70
21633;BME280;48765;51.568;8.840;2022-07-18T07:54:18;99221.97;;;21.86;54.45
21633;BME280;48765;51.568;8.840;2022-07-18T07:56:46;99223.84;;;22.06;53.64
21633;BME280;48765;51.568;8.840;2022-07-18T07:59:13;99221.22;;;22.04;53.78
21633;BME280;48765;51.568;8.840;2022-07-18T08:01:40;99222.97;;;22.49;52.48
21633;BME280;48765;51.568;8.840;2022-07-18T08:04:07;99225.38;;;22.35;53.61
21633;BME280;48765;51.568;8.840;2022-07-18T08:06:34;99220.25;;;22.49;53.99
21633;BME280;48765;51.568;8.840;2022-07-18T08:09:01;99227.13;;;22.56;53.83
21633;BME280;48765;51.568;8.840;2022-07-18T08:11:28;99233.28;;;22.60;53.17
21633;BME280;48765;51.568;8.840;2022-07-18T08:13:57;99229.63;;;22.81;52.74
21633;BME280;48765;51.568;8.840;2022-07-18T08:16:24;99224.72;;;22.91;51.98
21633;BME280;48765;51.568;8.840;2022-07-18T08:18:51;99223.38;;;23.01;52.17
21633;BME280;48765;51.568;8.840;2022-07-18T08:21:17;99213.16;;;23.08;51.06
21633;BME280;48765;51.568;8.840;2022-07-18T08:23:44;99210.91;;;23.17;49.99
21633;BME280;48765;51.568;8.840;2022-07-18T08:26:13;99204.63;;;23.36;50.09
21633;BME280;48765;51.568;8.840;2022-07-18T08:28:40;99207.25;;;23.56;48.71
21633;BME280;48765;51.568;8.840;2022-07-18T08:31:08;99208.88;;;23.60;49.47
21633;BME280;48765;51.568;8.840;2022-07-18T08:33:36;99198.56;;;23.50;48.43
21633;BME280;48765;51.568;8.840;2022-07-18T08:36:03;99201.31;;;23.68;49.11
21633;BME280;48765;51.568;8.840;2022-07-18T08:38:30;99196.88;;;23.85;49.28
21633;BME280;48765;51.568;8.840;2022-07-18T08:40:57;99202.59;;;23.79;48.36
21633;BME280;48765;51.568;8.840;2022-07-18T08:43:24;99194.50;;;24.15;47.14
21633;BME280;48765;51.568;8.840;2022-07-18T08:45:52;99179.75;;;23.84;47.31
21633;BME280;48765;51.568;8.840;2022-07-18T08:48:23;99191.59;;;24.01;49.00
21633;BME280;48765;51.568;8.840;2022-07-18T08:50:49;99191.19;;;23.91;46.94
21633;BME280;48765;51.568;8.840;2022-07-18T08:53:17;99198.09;;;24.33;46.52
21633;BME280;48765;51.568;8.840;2022-07-18T08:55:44;99201.44;;;24.20;46.43
21633;BME280;48765;51.568;8.840;2022-07-18T08:58:11;99195.91;;;24.05;46.68
21633;BME280;48765;51.568;8.840;2022-07-18T09:00:40;99187.78;;;24.22;47.99
21633;BME280;48765;51.568;8.840;2022-07-18T09:03:06;99187.03;;;24.55;45.33
21633;BME280;48765;51.568;8.840;2022-07-18T09:05:35;99187.09;;;24.36;45.47
21633;BME280;48765;51.568;8.840;2022-07-18T09:08:09;99191.88;;;24.31;45.28
21633;BME280;48765;51.568;8.840;2022-07-18T09:10:49;99189.38;;;24.45;44.43
21633;BME280;48765;51.568;8.840;2022-07-18T09:13:16;99189.84;;;24.53;45.59
21633;BME280;48765;51.568;8.840;2022-07-18T09:15:56;99184.81;;;24.63;43.97
21633;BME280;48765;51.568;8.840;2022-07-18T09:18:26;99186.16;;;24.37;44.48
21633;BME280;48765;51.568;8.840;2022-07-18T09:20:58;99188.09;;;24.52;44.72
21633;BME280;48765;51.568;8.840;2022-07-18T09:23:27;99182.41;;;24.74;44.34
21633;BME280;48765;51.568;8.840;2022-07-18T09:25:54;99184.06;;;24.94;43.83
21633;BME280;48765;51.568;8.840;2022-07-18T09:28:21;99181.84;;;24.85;43.44
21633;BME280;48765;51.568;8.840;2022-07-18T09:30:48;99180.16;;;25.48;42.43
21633;BME280;48765;51.568;8.840;2022-07-18T09:33:14;99182.41;;;25.09;41.96
21633;BME280;48765;51.568;8.840;2022-07-18T09:35:42;99180.16;;;25.33;41.32
21633;BME280;48765;51.568;8.840;2022-07-18T09:38:12;99178.63;;;25.60;40.10
21633;BME280;48765;51.568;8.840;2022-07-18T09:40:40;99178.94;;;25.54;41.43
21633;BME280;48765;51.568;8.840;2022-07-18T09:43:09;99188.09;;;25.69;40.94
21633;BME280;48765;51.568;8.840;2022-07-18T09:45:37;99184.22;;;25.57;41.41
21633;BME280;48765;51.568;8.840;2022-07-18T09:48:05;99180.78;;;26.17;41.41
21633;BME280;48765;51.568;8.840;2022-07-18T09:50:33;99184.91;;;25.92;40.84
21633;BME280;48765;51.568;8.840;2022-07-18T09:53:05;99186.28;;;26.15;40.61
21633;BME280;48765;51.568;8.840;2022-07-18T09:55:34;99177.41;;;25.97;39.32
21633;BME280;48765;51.568;8.840;2022-07-18T09:58:03;99182.22;;;26.08;40.42
21633;BME280;48765;51.568;8.840;2022-07-18T10:00:31;99175.28;;;25.87;40.09
21633;BME280;48765;51.568;8.840;2022-07-18T10:02:58;99172.16;;;25.79;38.55
21633;BME280;48765;51.568;8.840;2022-07-18T10:05:29;99174.88;;;26.24;39.11
21633;BME280;48765;51.568;8.840;2022-07-18T10:07:57;99168.13;;;26.32;38.42
21633;BME280;48765;51.568;8.840;2022-07-18T10:10:24;99172.31;;;25.91;39.54
21633;BME280;48765;51.568;8.840;2022-07-18T10:12:54;99177.19;;;26.16;40.76
21633;BME280;48765;51.568;8.840;2022-07-18T10:15:21;99171.22;;;26.25;38.73
21633;BME280;48765;51.568;8.840;2022-07-18T10:17:50;99172.84;;;25.98;39.34
21633;BME280;48765;51.568;8.840;2022-07-18T10:20:17;99179.28;;;26.27;39.08
21633;BME280;48765;51.568;8.840;2022-07-18T10:22:44;99174.16;;;26.37;37.57
21633;BME280;48765;51.568;8.840;2022-07-18T10:25:12;99158.97;;;26.93;37.37
21633;BME280;48765;51.568;8.840;2022-07-18T10:27:48;99161.06;;;26.59;37.44
21633;BME280;48765;51.568;8.840;2022-07-18T10:30:17;99152.94;;;26.88;37.16
21633;BME280;48765;51.568;8.840;2022-07-18T10:32:44;99153.56;;;26.63;38.64
21633;BME280;48765;51.568;8.840;2022-07-18T10:35:15;99153.28;;;26.67;37.00
21633;BME280;48765;51.568;8.840;2022-07-18T10:37:42;99157.50;;;26.43;38.10
21633;BME280;48765;51.568;8.840;2022-07-18T10:40:22;99156.09;;;27.10;37.57
21633;BME280;48765;51.568;8.840;2022-07-18T10:45:43;99156.28;;;27.21;36.94
21633;BME280;48765;51.568;8.840;2022-07-18T10:51:01;99139.69;;;26.96;36.33
21633;BME280;48765;51.568;8.840;2022-07-18T10:56:10;99131.88;;;27.61;35.07
21633;BME280;48765;51.568;8.840;2022-07-18T10:58:38;99125.56;;;27.61;34.62
21633;BME280;48765;51.568;8.840;2022-07-18T11:01:07;99129.28;;;28.01;34.87
21633;BME280;48765;51.568;8.840;2022-07-18T11:03:38;99124.28;;;27.66;35.00
21633;BME280;48765;51.568;8.840;2022-07-18T11:06:04;99127.41;;;28.28;34.33
21633;BME280;48765;51.568;8.840;2022-07-18T11:08:31;99130.41;;;27.84;35.09
21633;BME280;48765;51.568;8.840;2022-07-18T11:11:05;99124.81;;;28.00;34.04
21633;BME280;48765;51.568;8.840;2022-07-18T11:13:33;99130.13;;;27.74;34.82
21633;BME280;48765;51.568;8.840;2022-07-18T11:16:01;99124.13;;;28.23;33.86
21633;BME280;48765;51.568;8.840;2022-07-18T11:18:32;99124.50;;;28.05;34.06
21633;BME280;48765;51.568;8.840;2022-07-18T11:20:59;99128.41;;;28.40;34.47
21633;BME280;48765;51.568;8.840;2022-07-18T11:23:26;99121.53;;;27.81;34.86
21633;BME280;48765;51.568;8.840;2022-07-18T11:25:54;99117.25;;;28.31;33.80
21633;BME280;48765;51.568;8.840;2022-07-18T11:28:21;99112.31;;;28.23;34.35
21633;BME280;48765;51.568;8.840;2022-07-18T11:30:58;99111.81;;;28.03;34.07
21633;BME280;48765;51.568;8.840;2022-07-18T11:33:26;99116.53;;;27.60;35.34
21633;BME280;48765;51.568;8.840;2022-07-18T11:36:03;99112.69;;;28.04;35.43
21633;BME280;48765;51.568;8.840;2022-07-18T11:38:30;99108.06;;;28.71;33.20
21633;BME280;48765;51.568;8.840;2022-07-18T11:40:56;99100.06;;;28.43;34.11
21633;BME280;48765;51.568;8.840;2022-07-18T11:43:23;99095.69;;;29.17;33.63
21633;BME280;48765;51.568;8.840;2022-07-18T11:46:01;99103.16;;;29.02;33.33
21633;BME280;48765;51.568;8.840;2022-07-18T11:48:28;99087.31;;;28.82;32.91
21633;BME280;48765;51.568;8.840;2022-07-18T11:50:55;99099.53;;;28.38;34.42
21633;BME280;48765;51.568;8.840;2022-07-18T11:53:23;99089.44;;;28.25;34.39
21633;BME280;48765;51.568;8.840;2022-07-18T11:55:51;99088.97;;;28.06;35.78
21633;BME280;48765;51.568;8.840;2022-07-18T11:58:19;99078.13;;;28.83;34.30
21633;BME280;48765;51.568;8.840;2022-07-18T12:00:46;99081.06;;;28.28;33.74
21633;BME280;48765;51.568;8.840;2022-07-18T12:03:14;99074.00;;;29.02;32.82
21633;BME280;48765;51.568;8.840;2022-07-18T12:05:42;99076.72;;;29.15;33.30
21633;BME280;48765;51.568;8.840;2022-07-18T12:08:27;99068.25;;;29.31;33.42
21633;BME280;48765;51.568;8.840;2022-07-18T12:11:08;99066.88;;;29.49;31.84
21633;BME280;48765;51.568;8.840;2022-07-18T12:16:35;99068.97;;;29.09;32.44
21633;BME280;48765;51.568;8.840;2022-07-18T12:19:03;99060.88;;;29.81;32.77
21633;BME280;48765;51.568;8.840;2022-07-18T12:24:31;99059.72;;;29.72;30.79
21633;BME280;48765;51.568;8.840;2022-07-18T12:27:08;99057.56;;;29.89;31.29
21633;BME280;48765;51.568;8.840;2022-07-18T12:29:53;99055.53;;;29.79;30.53
21633;BME280;48765;51.568;8.840;2022-07-18T12:32:22;99039.84;;;29.94;30.37
21633;BME280;48765;51.568;8.840;2022-07-18T12:34:53;99057.47;;;30.01;30.83
21633;BME280;48765;51.568;8.840;2022-07-18T12:37:22;99046.13;;;29.84;29.68
21633;BME280;48765;51.568;8.840;2022-07-18T12:39:50;99050.91;;;30.04;30.75
21633;BME280;48765;51.568;8.840;2022-07-18T12:42:26;99049.56;;;30.10;29.88
21633;BME280;48765;51.568;8.840;2022-07-18T12:44:53;99043.59;;;29.33;30.09
21633;BME280;48765;51.568;8.840;2022-07-18T12:47:20;99043.75;;;29.42;30.72
21633;BME280;48765;51.568;8.840;2022-07-18T12:49:47;99036.28;;;29.81;30.33
21633;BME280;48765;51.568;8.840;2022-07-18T12:52:14;99039.75;;;30.07;31.85
21633;BME280;48765;51.568;8.840;2022-07-18T12:54:41;99041.06;;;29.66;30.69
21633;BME280;48765;51.568;8.840;2022-07-18T12:57:10;99033.00;;;30.00;29.93
21633;BME280;48765;51.568;8.840;2022-07-18T12:59:36;99031.31;;;29.75;29.51
21633;BME280;48765;51.568;8.840;2022-07-18T13:02:03;99028.72;;;29.85;30.23
21633;BME280;48765;51.568;8.840;2022-07-18T13:04:30;99030.56;;;30.66;30.73
21633;BME280;48765;51.568;8.840;2022-07-18T13:06:58;99032.44;;;30.54;30.23
21633;BME280;48765;51.568;8.840;2022-07-18T13:09:24;99036.88;;;30.33;31.01
21633;BME280;48765;51.568;8.840;2022-07-18T13:11:51;99024.97;;;30.10;30.42